createdAt,value
2023-03-03T00:03:02.432Z,101004.13
2023-03-03T00:08:07.270Z,101000.09
2023-03-03T00:13:16.456Z,101001.00
2023-03-03T00:18:26.785Z,101000.84
2023-03-03T00:23:38.141Z,101001.63
2023-03-03T00:28:47.288Z,100999.88
2023-03-03T00:33:54.924Z,101000.72
2023-03-03T00:39:17.290Z,100998.44
2023-03-03T00:44:44.936Z,101004.03
2023-03-03T00:49:48.106Z,101013.16
2023-03-03T00:54:52.627Z,101019.47
2023-03-03T00:59:56.045Z,101002.97
2023-03-03T01:04:59.594Z,101003.63
2023-03-03T01:10:04.069Z,101006.19
2023-03-03T01:15:08.797Z,101001.97
2023-03-03T01:20:14.104Z,100991.63
2023-03-03T01:25:18.800Z,100989.34
2023-03-03T01:30:22.363Z,100989.88
2023-03-03T01:35:26.323Z,100987.31
2023-03-03T01:40:32.552Z,100979.63
2023-03-03T01:46:06.368Z,100990.25
2023-03-03T01:51:17.078Z,100983.69
2023-03-03T01:56:21.591Z,100998.09
2023-03-03T02:01:29.520Z,100994.88
2023-03-03T02:06:36.822Z,100993.56
2023-03-03T02:11:44.272Z,100993.69
2023-03-03T02:16:47.517Z,100990.16
2023-03-03T02:21:51.325Z,101001.50
2023-03-03T02:26:56.513Z,100998.31
2023-03-03T02:31:59.793Z,100998.53
2023-03-03T02:37:04.902Z,100996.97
2023-03-03T02:42:14.180Z,101001.97
2023-03-03T02:47:17.283Z,101007.59
2023-03-03T02:52:20.544Z,100994.84
2023-03-03T02:57:26.523Z,100999.00
2023-03-03T03:02:29.612Z,100973.22
2023-03-03T03:07:32.827Z,100962.69
2023-03-03T03:12:37.279Z,100955.88
2023-03-03T03:17:41.082Z,100961.72
2023-03-03T03:22:44.579Z,100968.56
2023-03-03T03:27:49.526Z,100975.44
2023-03-03T03:32:52.869Z,100988.63
2023-03-03T03:37:56.181Z,100989.00
2023-03-03T03:43:01.772Z,100997.69
2023-03-03T03:48:05.168Z,100997.03
2023-03-03T03:53:09.203Z,100994.25
2023-03-03T03:58:15.672Z,100991.56
2023-03-03T04:03:19.170Z,100994.88
2023-03-03T04:08:22.466Z,101004.38
2023-03-03T04:13:28.993Z,101009.81
2023-03-03T04:18:32.367Z,101011.78
2023-03-03T04:23:35.566Z,101013.38
2023-03-03T04:28:40.178Z,101015.94
2023-03-03T04:33:43.853Z,101015.78
2023-03-03T04:38:47.000Z,101015.47
2023-03-03T04:43:51.575Z,101028.84
2023-03-03T04:48:55.559Z,101021.16
2023-03-03T04:54:02.753Z,101008.38
2023-03-03T04:59:07.563Z,101009.03
2023-03-03T05:04:11.234Z,101016.63
2023-03-03T05:09:15.371Z,101020.88
2023-03-03T05:14:26.400Z,101019.97
2023-03-03T05:19:29.884Z,101023.84
2023-03-03T05:24:33.204Z,101034.53
2023-03-03T05:30:08.128Z,101029.13
2023-03-03T05:35:13.187Z,101029.75
2023-03-03T05:40:44.425Z,101028.69
2023-03-03T05:45:49.465Z,101026.19
2023-03-03T05:51:08.488Z,101014.13
2023-03-03T05:56:11.672Z,101018.13
2023-03-03T06:01:20.844Z,101016.16
2023-03-03T06:06:35.125Z,101029.84
2023-03-03T06:11:49.267Z,101038.75
2023-03-03T06:16:54.726Z,101062.91
2023-03-03T06:22:31.529Z,101053.44
2023-03-03T06:27:35.357Z,101056.75
2023-03-03T06:32:40.289Z,101053.16
2023-03-03T06:37:43.999Z,101048.78
2023-03-03T06:42:47.650Z,101047.75
2023-03-03T06:53:43.842Z,101065.78
2023-03-03T06:59:02.800Z,101076.88
2023-03-03T07:04:15.239Z,101100.13
2023-03-03T07:09:24.114Z,101098.03
2023-03-03T07:14:27.465Z,101097.34
2023-03-03T07:19:54.251Z,101094.47
2023-03-03T07:25:04.752Z,101107.16
2023-03-03T07:30:25.726Z,101111.06
2023-03-03T07:35:39.957Z,101113.66
2023-03-03T07:40:49.450Z,101121.69
2023-03-03T07:47:47.785Z,101132.00
2023-03-03T07:58:49.682Z,101131.97
2023-03-03T08:04:02.117Z,101131.69
2023-03-03T08:09:55.086Z,101127.09
2023-03-03T08:15:19.122Z,101129.50
2023-03-03T08:20:54.043Z,101123.91
2023-03-03T08:26:00.024Z,101124.09
2023-03-03T08:31:16.717Z,101124.38
2023-03-03T08:37:05.881Z,101126.75
2023-03-03T08:42:09.043Z,101127.44
2023-03-03T08:47:13.735Z,101130.72
2023-03-03T08:52:38.745Z,101133.00
2023-03-03T08:57:58.357Z,101142.50
2023-03-03T09:03:03.239Z,101145.53
2023-03-03T09:08:07.238Z,101146.78
2023-03-03T09:13:15.316Z,101146.50
2023-03-03T09:18:23.768Z,101143.03
2023-03-03T09:23:35.096Z,101131.59
2023-03-03T09:28:39.077Z,101137.03
2023-03-03T09:33:45.625Z,101141.88
2023-03-03T09:38:49.362Z,101145.84
2023-03-03T09:44:17.400Z,101144.69
2023-03-03T09:49:32.377Z,101159.38
2023-03-03T09:54:55.150Z,101136.94
2023-03-03T10:00:23.853Z,101140.03
2023-03-03T10:05:39.009Z,101129.91
2023-03-03T10:10:51.681Z,101149.47
2023-03-03T10:16:20.891Z,101145.00
2023-03-03T10:21:37.120Z,101149.91
2023-03-03T10:27:12.658Z,101152.72
2023-03-03T10:32:45.694Z,101152.13
2023-03-03T10:38:05.449Z,101148.28
2023-03-03T10:43:31.138Z,101140.84
2023-03-03T10:49:01.099Z,101145.03
2023-03-03T10:54:19.905Z,101153.38
2023-03-03T10:59:41.199Z,101147.00
2023-03-03T11:04:56.787Z,101141.84
2023-03-03T11:10:14.971Z,101141.25
2023-03-03T11:15:44.128Z,101129.06
2023-03-03T11:20:55.442Z,101133.81
2023-03-03T11:26:09.788Z,101122.19
2023-03-03T11:31:22.543Z,101129.94
2023-03-03T11:36:34.605Z,101122.03
2023-03-03T11:41:42.437Z,101125.31
2023-03-03T11:46:48.859Z,101132.28
2023-03-03T11:52:04.178Z,101132.75
2023-03-03T11:57:21.569Z,101130.06
2023-03-03T12:02:45.365Z,101126.47
2023-03-03T12:07:58.579Z,101125.34
2023-03-03T12:13:07.859Z,101119.53
2023-03-03T12:18:46.358Z,101105.97
2023-03-03T12:24:07.973Z,101101.16
2023-03-03T12:29:23.280Z,101094.25
2023-03-03T12:34:35.274Z,101090.44
2023-03-03T12:39:46.356Z,101087.78
2023-03-03T12:45:00.755Z,101080.91
2023-03-03T12:50:22.092Z,101092.59
2023-03-03T12:55:36.738Z,101072.75
2023-03-03T13:00:51.546Z,101074.56
2023-03-03T13:06:01.971Z,101070.38
2023-03-03T13:11:24.484Z,101056.91
2023-03-03T13:16:41.014Z,101054.25
2023-03-03T13:21:51.501Z,101062.97
2023-03-03T13:26:59.987Z,101073.00
2023-03-03T13:32:13.875Z,101066.09
2023-03-03T13:37:22.146Z,101069.88
2023-03-03T13:42:32.536Z,101068.16
2023-03-03T13:47:47.227Z,101060.44
2023-03-03T13:53:04.825Z,101056.34
2023-03-03T13:58:22.060Z,101063.03
2023-03-03T14:04:00.873Z,101045.50
2023-03-03T14:09:36.422Z,101036.78
2023-03-03T14:14:48.609Z,101027.41
2023-03-03T14:20:06.238Z,101018.34
2023-03-03T14:25:12.676Z,101017.53
2023-03-03T14:30:30.763Z,101010.44
2023-03-03T14:35:39.264Z,101016.28
2023-03-03T14:40:45.536Z,101005.66
2023-03-03T14:45:50.614Z,101009.00
2023-03-03T14:51:04.761Z,100992.34
2023-03-03T14:56:25.074Z,101001.22
2023-03-03T15:01:34.224Z,100991.94
2023-03-03T15:06:44.054Z,100990.44
2023-03-03T15:11:47.362Z,100999.72
2023-03-03T15:16:51.485Z,100995.78
2023-03-03T15:22:06.010Z,100992.34
2023-03-03T15:27:18.875Z,101000.53
2023-03-03T15:32:31.499Z,100998.34
2023-03-03T15:37:49.047Z,100981.84
2023-03-03T15:42:59.319Z,100985.75
2023-03-03T15:48:25.810Z,100993.09
2023-03-03T15:53:57.075Z,100992.34
2023-03-03T15:59:33.659Z,100985.31
2023-03-03T16:04:42.053Z,100989.06
2023-03-03T16:09:59.691Z,100986.47
2023-03-03T16:15:21.131Z,100976.25
2023-03-03T16:20:29.570Z,100980.00
2023-03-03T16:25:45.376Z,100983.69
2023-03-03T16:30:55.709Z,101001.94
2023-03-03T16:36:09.774Z,101000.44
2023-03-03T16:41:20.350Z,100999.00
2023-03-03T16:46:33.340Z,100998.16
2023-03-03T16:51:46.489Z,100994.81
2023-03-03T16:57:02.211Z,100991.38
2023-03-03T17:02:21.208Z,101007.94
2023-03-03T17:07:40.703Z,101004.81
2023-03-03T17:13:22.814Z,101010.06
2023-03-03T17:18:41.300Z,101009.47
2023-03-03T17:23:54.842Z,100999.00
2023-03-03T17:29:11.406Z,101012.06
2023-03-03T17:34:29.224Z,101009.38
2023-03-03T17:39:57.398Z,101011.91
2023-03-03T17:45:08.394Z,101013.88
2023-03-03T17:50:29.914Z,101009.63
2023-03-03T17:55:44.370Z,101001.38
2023-03-03T18:01:00.962Z,101005.63
2023-03-03T18:06:31.438Z,101006.50
2023-03-03T18:12:01.167Z,101010.00
2023-03-03T18:17:26.130Z,101014.16
2023-03-03T18:22:34.653Z,100998.88
2023-03-03T18:27:39.989Z,101008.38
2023-03-03T18:32:46.166Z,101000.72
2023-03-03T18:37:52.489Z,101003.44
2023-03-03T18:42:56.908Z,101002.75
2023-03-03T18:48:11.304Z,101013.25
2023-03-03T18:53:26.885Z,101004.81
2023-03-03T18:58:42.505Z,101006.69
2023-03-03T19:04:04.816Z,101010.97
2023-03-03T19:09:13.416Z,101009.22
2023-03-03T19:14:25.818Z,101012.94
2023-03-03T19:19:34.433Z,101013.38
2023-03-03T19:24:39.386Z,101015.06
2023-03-03T19:30:23.019Z,101019.56
2023-03-03T19:35:37.153Z,101014.44
2023-03-03T19:40:48.843Z,101008.44
2023-03-03T19:46:06.543Z,101002.56
2023-03-03T19:51:36.542Z,101004.59
2023-03-03T19:56:51.778Z,101004.81
2023-03-03T20:02:26.335Z,101004.75
2023-03-03T20:07:42.393Z,101009.94
2023-03-03T20:13:00.298Z,101004.09
2023-03-03T20:18:29.860Z,101005.81
2023-03-03T20:23:42.655Z,101000.69
2023-03-03T20:29:12.542Z,101006.84
2023-03-03T20:34:20.614Z,101014.00
2023-03-03T20:39:38.786Z,101004.50
2023-03-03T20:44:57.058Z,101005.25
2023-03-03T20:50:19.160Z,101005.31
2023-03-03T20:55:33.912Z,101008.13
2023-03-03T21:00:44.212Z,101003.28
2023-03-03T21:05:58.625Z,101006.88
2023-03-03T21:11:03.682Z,101010.94
2023-03-03T21:16:14.030Z,101013.38
2023-03-03T21:21:17.514Z,101005.88
2023-03-03T21:26:48.481Z,100996.44
2023-03-03T21:31:54.973Z,101000.09
2023-03-03T21:36:59.371Z,100996.59
2023-03-03T21:42:05.836Z,100993.44
2023-03-03T21:47:12.286Z,100993.66
2023-03-03T21:52:18.436Z,100992.13
2023-03-03T21:57:22.493Z,100980.38
2023-03-03T22:02:27.288Z,100970.19
2023-03-03T22:07:30.727Z,100960.59
2023-03-03T22:12:33.945Z,100972.78
2023-03-03T22:17:38.575Z,100962.63
2023-03-03T22:22:42.062Z,100962.84
2023-03-03T22:27:45.375Z,100958.72
2023-03-03T22:32:52.363Z,100964.81
2023-03-03T22:37:56.493Z,100958.91
2023-03-03T22:42:59.915Z,100965.00
2023-03-03T22:48:08.493Z,100956.47
2023-03-03T22:53:11.844Z,100955.38
2023-03-03T22:58:15.791Z,100944.38
2023-03-03T23:03:21.872Z,100947.09
2023-03-03T23:08:25.279Z,100939.28
2023-03-03T23:13:28.528Z,100924.69
2023-03-03T23:18:33.236Z,100916.94
2023-03-03T23:23:36.462Z,100916.94
2023-03-03T23:28:39.780Z,100908.25
2023-03-03T23:33:44.548Z,100916.06
2023-03-03T23:38:47.800Z,100900.34
2023-03-03T23:43:51.015Z,100898.53
2023-03-03T23:48:55.556Z,100889.03
2023-03-03T23:53:58.790Z,100881.50
2023-03-03T23:59:05.945Z,100883.38
